createdAt,value
2023-01-09T00:01:44.841Z,9.70
2023-01-09T00:04:13.002Z,9.70
2023-01-09T00:06:42.527Z,9.70
2023-01-09T00:09:10.977Z,9.70
2023-01-09T00:11:38.281Z,9.60
2023-01-09T00:14:05.492Z,9.60
2023-01-09T00:16:32.635Z,9.60
2023-01-09T00:19:04.330Z,9.50
2023-01-09T00:21:36.435Z,9.50
2023-01-09T00:24:06.537Z,9.50
2023-01-09T00:26:38.366Z,9.50
2023-01-09T00:29:10.231Z,9.50
2023-01-09T00:31:44.482Z,9.50
2023-01-09T00:34:14.390Z,9.40
2023-01-09T00:36:41.856Z,9.40
2023-01-09T00:39:09.032Z,9.40
2023-01-09T00:41:43.125Z,9.40
2023-01-09T00:44:18.276Z,9.40
2023-01-09T00:46:51.467Z,9.30
2023-01-09T00:49:21.888Z,9.30
2023-01-09T00:51:54.747Z,9.30
2023-01-09T00:54:24.479Z,9.30
2023-01-09T00:56:51.789Z,9.30
2023-01-09T00:59:21.452Z,9.20
2023-01-09T01:01:48.733Z,9.30
2023-01-09T01:04:34.275Z,9.30
2023-01-09T01:07:19.917Z,9.30
2023-01-09T01:09:47.015Z,9.30
2023-01-09T01:12:14.220Z,9.30
2023-01-09T01:14:43.534Z,9.20
2023-01-09T01:17:10.739Z,9.20
2023-01-09T01:19:37.940Z,9.20
2023-01-09T01:22:05.056Z,9.20
2023-01-09T01:24:32.226Z,9.20
2023-01-09T01:26:59.359Z,9.20
2023-01-09T01:29:26.870Z,9.20
2023-01-09T01:31:56.514Z,9.20
2023-01-09T01:34:29.168Z,9.20
2023-01-09T01:36:56.227Z,9.20
2023-01-09T01:39:25.781Z,9.20
2023-01-09T01:41:55.163Z,9.10
2023-01-09T01:45:02.416Z,9.10
2023-01-09T01:47:45.543Z,9.10
2023-01-09T01:50:26.173Z,9.10
2023-01-09T01:53:00.037Z,9.00
2023-01-09T01:55:27.249Z,9.00
2023-01-09T01:58:01.061Z,9.00
2023-01-09T02:00:38.083Z,9.00
2023-01-09T02:03:07.589Z,9.00
2023-01-09T02:05:39.172Z,8.90
2023-01-09T02:08:08.119Z,8.90
2023-01-09T02:10:39.377Z,8.90
2023-01-09T02:13:10.181Z,8.90
2023-01-09T02:15:55.093Z,8.90
2023-01-09T02:18:46.320Z,8.90
2023-01-09T02:21:28.412Z,8.90
2023-01-09T02:24:23.017Z,8.90
2023-01-09T02:27:19.090Z,8.80
2023-01-09T02:30:23.608Z,8.80
2023-01-09T02:33:12.610Z,8.80
2023-01-09T02:35:51.919Z,8.80
2023-01-09T02:38:42.931Z,8.80
2023-01-09T02:41:10.021Z,8.80
2023-01-09T02:43:39.845Z,8.80
2023-01-09T02:46:20.242Z,8.80
2023-01-09T02:48:51.385Z,8.80
2023-01-09T02:51:40.609Z,8.90
2023-01-09T02:54:37.151Z,8.90
2023-01-09T02:57:22.978Z,8.90
2023-01-09T03:00:10.598Z,8.90
2023-01-09T03:02:47.069Z,8.90
2023-01-09T03:05:36.286Z,8.90
2023-01-09T03:08:33.977Z,8.90
2023-01-09T03:11:07.681Z,8.90
2023-01-09T03:14:01.378Z,8.90
2023-01-09T03:16:33.918Z,8.90
2023-01-09T03:19:07.645Z,8.90
2023-01-09T03:21:35.549Z,8.90
2023-01-09T03:24:03.278Z,9.00
2023-01-09T03:26:31.126Z,9.10
2023-01-09T03:28:59.446Z,9.10
2023-01-09T03:31:26.544Z,9.10
2023-01-09T03:33:56.547Z,9.10
2023-01-09T03:36:26.834Z,9.10
2023-01-09T03:38:58.161Z,9.20
2023-01-09T03:41:25.279Z,9.20
2023-01-09T03:43:54.918Z,9.20
2023-01-09T03:46:26.696Z,9.20
2023-01-09T03:48:56.037Z,9.20
2023-01-09T03:51:25.265Z,9.20
2023-01-09T03:53:54.715Z,9.30
2023-01-09T03:56:25.633Z,9.30
2023-01-09T03:58:53.670Z,9.30
2023-01-09T04:01:23.105Z,9.30
2023-01-09T04:03:50.328Z,9.30
2023-01-09T04:06:19.513Z,9.30
2023-01-09T04:08:46.776Z,9.30
2023-01-09T04:11:14.201Z,9.30
2023-01-09T04:13:41.389Z,9.30
2023-01-09T04:16:09.213Z,9.30
2023-01-09T04:18:36.418Z,9.30
2023-01-09T04:21:03.664Z,9.40
2023-01-09T04:23:32.947Z,9.40
2023-01-09T04:26:00.131Z,9.40
2023-01-09T04:28:27.266Z,9.40
2023-01-09T04:30:54.433Z,9.50
2023-01-09T04:33:23.845Z,9.50
2023-01-09T04:35:50.937Z,9.50
2023-01-09T04:38:18.335Z,9.60
2023-01-09T04:40:48.493Z,9.50
2023-01-09T04:43:20.345Z,9.50
2023-01-09T04:45:49.738Z,9.50
2023-01-09T04:48:19.369Z,9.60
2023-01-09T04:50:52.025Z,9.60
2023-01-09T04:53:19.197Z,9.60
2023-01-09T04:55:48.790Z,9.60
2023-01-09T04:58:18.411Z,9.60
2023-01-09T05:00:48.747Z,9.60
2023-01-09T05:03:18.897Z,9.70
2023-01-09T05:05:50.432Z,9.70
2023-01-09T05:08:22.383Z,9.70
2023-01-09T05:10:51.549Z,9.70
2023-01-09T05:13:18.671Z,9.80
2023-01-09T05:15:48.235Z,9.80
2023-01-09T05:18:15.843Z,9.80
2023-01-09T05:20:45.506Z,9.80
2023-01-09T05:23:14.868Z,9.80
2023-01-09T05:25:41.997Z,9.70
2023-01-09T05:28:09.159Z,9.80
2023-01-09T05:30:36.767Z,9.70
2023-01-09T05:33:04.003Z,9.70
2023-01-09T05:35:31.186Z,9.70
2023-01-09T05:38:00.956Z,9.80
2023-01-09T05:40:40.129Z,9.80
2023-01-09T05:43:07.972Z,9.80
2023-01-09T05:45:39.883Z,9.90
2023-01-09T05:48:11.735Z,9.90
2023-01-09T05:50:38.972Z,9.90
2023-01-09T05:53:08.799Z,9.90
2023-01-09T05:55:36.185Z,9.90
2023-01-09T05:58:05.645Z,9.90
2023-01-09T06:00:32.833Z,10.00
2023-01-09T06:03:00.147Z,10.00
2023-01-09T06:05:27.403Z,10.00
2023-01-09T06:07:54.527Z,10.00
2023-01-09T06:10:21.649Z,10.00
2023-01-09T06:12:50.753Z,9.90
2023-01-09T06:15:20.866Z,9.90
2023-01-09T06:17:50.472Z,9.90
2023-01-09T06:20:20.005Z,10.00
2023-01-09T06:22:52.083Z,10.00
2023-01-09T06:25:24.236Z,10.00
2023-01-09T06:27:54.262Z,9.90
2023-01-09T06:30:21.403Z,10.00
2023-01-09T06:32:49.615Z,10.00
2023-01-09T06:35:22.552Z,10.00
2023-01-09T06:37:52.719Z,10.00
2023-01-09T06:40:22.610Z,9.90
2023-01-09T06:42:50.166Z,9.90
2023-01-09T06:45:19.677Z,9.90
2023-01-09T06:47:50.131Z,10.00
2023-01-09T06:50:19.911Z,9.90
2023-01-09T06:52:47.280Z,10.00
2023-01-09T06:55:17.707Z,9.90
2023-01-09T06:57:45.083Z,9.90
2023-01-09T07:00:14.857Z,9.90
2023-01-09T07:02:42.124Z,9.90
2023-01-09T07:05:11.552Z,9.90
2023-01-09T07:07:39.749Z,9.90
2023-01-09T07:10:07.871Z,9.90
2023-01-09T07:12:35.131Z,10.00
2023-01-09T07:15:05.249Z,9.90
2023-01-09T07:17:32.889Z,9.90
2023-01-09T07:20:00.788Z,10.00
2023-01-09T07:22:30.279Z,10.00
2023-01-09T07:24:57.442Z,10.00
2023-01-09T07:27:26.792Z,10.00
2023-01-09T07:30:01.104Z,10.00
2023-01-09T07:32:28.245Z,10.00
2023-01-09T07:34:55.423Z,10.00
2023-01-09T07:37:24.993Z,10.00
2023-01-09T07:39:52.257Z,10.00
2023-01-09T07:42:19.460Z,10.10
2023-01-09T07:44:46.664Z,10.00
2023-01-09T07:47:16.084Z,10.00
2023-01-09T07:49:47.875Z,10.00
2023-01-09T07:52:15.136Z,10.00
2023-01-09T07:54:42.266Z,10.00
2023-01-09T07:57:11.622Z,10.10
2023-01-09T07:59:38.797Z,10.00
2023-01-09T08:02:09.761Z,10.00
2023-01-09T08:04:39.599Z,10.00
2023-01-09T08:07:08.926Z,10.00
2023-01-09T08:09:38.494Z,10.00
2023-01-09T08:12:08.848Z,10.00
2023-01-09T08:14:39.108Z,10.10
2023-01-09T08:17:09.491Z,10.10
2023-01-09T08:19:39.109Z,10.00
2023-01-09T08:22:11.056Z,10.00
2023-01-09T08:24:38.286Z,10.10
2023-01-09T08:27:05.426Z,10.10
2023-01-09T08:29:32.743Z,10.10
2023-01-09T08:31:59.997Z,10.00
2023-01-09T08:34:32.619Z,10.00
2023-01-09T08:36:59.802Z,10.00
2023-01-09T08:39:31.495Z,10.00
2023-01-09T08:42:17.180Z,10.00
2023-01-09T08:45:07.405Z,10.00
2023-01-09T08:47:36.983Z,10.00
2023-01-09T08:50:07.344Z,10.00
2023-01-09T08:52:37.010Z,10.10
2023-01-09T08:55:04.417Z,10.00
2023-01-09T08:57:31.683Z,9.90
2023-01-09T08:59:58.912Z,10.00
2023-01-09T09:02:29.833Z,10.00
2023-01-09T09:04:59.485Z,10.00
2023-01-09T09:07:26.865Z,10.00
2023-01-09T09:09:56.730Z,10.00
2023-01-09T09:12:24.270Z,10.00
2023-01-09T09:15:10.176Z,10.00
2023-01-09T09:17:37.481Z,9.90
2023-01-09T09:20:05.247Z,10.00
2023-01-09T09:22:32.595Z,10.00
2023-01-09T09:25:02.546Z,10.00
2023-01-09T09:27:33.093Z,10.00
2023-01-09T09:30:00.509Z,10.00
2023-01-09T09:32:27.651Z,10.00
2023-01-09T09:34:56.942Z,10.00
2023-01-09T09:37:26.668Z,10.00
2023-01-09T09:39:57.928Z,10.00
2023-01-09T09:43:05.653Z,10.00
2023-01-09T09:46:04.767Z,10.00
2023-01-09T09:48:45.649Z,10.00
2023-01-09T09:51:21.705Z,10.10
2023-01-09T09:54:01.031Z,9.90
2023-01-09T09:56:32.650Z,10.00
2023-01-09T09:59:07.820Z,10.00
2023-01-09T10:01:43.087Z,10.00
2023-01-09T10:04:17.733Z,10.00
2023-01-09T10:06:52.787Z,10.00
2023-01-09T10:09:29.544Z,10.00
2023-01-09T10:12:04.019Z,10.00
2023-01-09T10:14:31.798Z,10.00
2023-01-09T10:17:29.075Z,10.00
2023-01-09T10:20:22.419Z,10.00
2023-01-09T10:22:58.460Z,10.10
2023-01-09T10:26:00.568Z,10.00
2023-01-09T10:28:49.850Z,10.00
2023-01-09T10:31:30.131Z,10.00
2023-01-09T10:34:09.512Z,10.00
2023-01-09T10:37:00.197Z,10.10
2023-01-09T10:39:43.728Z,10.00
2023-01-09T10:42:25.983Z,10.00
2023-01-09T10:45:05.373Z,10.00
2023-01-09T10:47:42.822Z,10.00
2023-01-09T10:50:28.065Z,10.00
2023-01-09T10:52:59.299Z,10.10
2023-01-09T10:55:36.355Z,10.00
2023-01-09T10:58:14.439Z,10.00
2023-01-09T11:00:43.866Z,10.00
2023-01-09T11:03:18.609Z,10.00
2023-01-09T11:05:51.553Z,10.00
2023-01-09T11:08:23.233Z,10.00
2023-01-09T11:10:53.624Z,10.00
2023-01-09T11:13:24.449Z,10.10
2023-01-09T11:16:06.632Z,10.10
2023-01-09T11:18:54.375Z,10.00
2023-01-09T11:21:38.246Z,10.00
2023-01-09T11:24:23.030Z,10.10
2023-01-09T11:26:54.557Z,10.10
2023-01-09T11:29:28.923Z,10.00
2023-01-09T11:32:04.228Z,10.00
2023-01-09T11:34:33.325Z,10.00
2023-01-09T11:37:11.611Z,10.10
2023-01-09T11:39:47.108Z,10.10
2023-01-09T11:42:48.047Z,10.10
2023-01-09T11:45:32.233Z,10.20
2023-01-09T11:48:00.110Z,10.20
2023-01-09T11:50:31.376Z,10.10
2023-01-09T11:53:25.167Z,10.10
2023-01-09T11:56:14.371Z,10.20
2023-01-09T11:58:44.149Z,10.20
2023-01-09T12:01:47.848Z,10.20
2023-01-09T12:04:28.900Z,10.20
2023-01-09T12:07:28.243Z,10.20
2023-01-09T12:10:07.950Z,10.20
2023-01-09T12:12:53.244Z,10.20
2023-01-09T12:15:44.595Z,10.20
2023-01-09T12:18:29.367Z,10.10
2023-01-09T12:21:13.026Z,10.10
2023-01-09T12:24:07.951Z,10.20
2023-01-09T12:27:14.989Z,10.20
2023-01-09T12:29:47.892Z,10.30
2023-01-09T12:32:46.974Z,10.30
2023-01-09T12:35:38.864Z,10.30
2023-01-09T12:38:25.903Z,10.30
2023-01-09T12:40:59.357Z,10.30
2023-01-09T12:43:33.770Z,10.30
2023-01-09T12:46:26.431Z,10.30
2023-01-09T12:49:21.885Z,10.30
2023-01-09T12:52:39.391Z,10.30
2023-01-09T12:55:20.259Z,10.40
2023-01-09T12:57:51.329Z,10.40
2023-01-09T13:00:26.780Z,10.50
2023-01-09T13:03:12.555Z,10.40
2023-01-09T13:05:46.068Z,10.40
2023-01-09T13:08:38.532Z,10.40
2023-01-09T13:11:19.472Z,10.50
2023-01-09T13:13:55.915Z,10.50
2023-01-09T13:16:49.185Z,10.50
2023-01-09T13:19:39.516Z,10.60
2023-01-09T13:22:08.024Z,10.60
2023-01-09T13:25:05.784Z,10.70
2023-01-09T13:27:39.705Z,10.70
2023-01-09T13:30:45.648Z,10.70
2023-01-09T13:33:23.952Z,10.70
2023-01-09T13:35:58.854Z,10.70
2023-01-09T13:38:31.352Z,10.70
2023-01-09T13:41:44.275Z,10.70
2023-01-09T13:44:18.855Z,10.70
2023-01-09T13:46:52.203Z,10.80
2023-01-09T13:49:40.461Z,10.80
2023-01-09T13:52:28.568Z,10.70
2023-01-09T13:55:00.640Z,10.80
2023-01-09T13:57:36.728Z,10.70
2023-01-09T14:00:13.151Z,10.80
2023-01-09T14:03:09.482Z,10.80
2023-01-09T14:05:36.692Z,10.80
2023-01-09T14:08:24.471Z,10.70
2023-01-09T14:11:01.039Z,10.70
2023-01-09T14:13:43.726Z,10.70
2023-01-09T14:16:24.507Z,10.80
2023-01-09T14:19:06.195Z,10.80
2023-01-09T14:21:57.440Z,10.80
2023-01-09T14:24:46.600Z,10.80
2023-01-09T14:27:51.320Z,10.90
2023-01-09T14:30:28.010Z,10.90
2023-01-09T14:33:19.894Z,10.80
2023-01-09T14:36:13.853Z,10.70
2023-01-09T14:38:50.456Z,10.70
2023-01-09T14:41:46.009Z,10.70
2023-01-09T14:44:25.690Z,10.70
2023-01-09T14:46:54.578Z,10.70
2023-01-09T14:49:31.820Z,10.80
2023-01-09T14:52:08.077Z,10.70
2023-01-09T14:54:40.123Z,10.70
2023-01-09T14:57:27.590Z,10.70
2023-01-09T15:00:01.207Z,10.70
2023-01-09T15:02:33.741Z,10.70
2023-01-09T15:05:09.832Z,10.70
2023-01-09T15:07:44.427Z,10.70
2023-01-09T15:10:24.470Z,10.70
2023-01-09T15:12:54.757Z,10.70
2023-01-09T15:15:28.788Z,10.70
2023-01-09T15:18:07.808Z,10.60
2023-01-09T15:20:35.564Z,10.70
2023-01-09T15:23:05.842Z,10.70
2023-01-09T15:25:39.274Z,10.70
2023-01-09T15:28:32.686Z,10.60
2023-01-09T15:31:24.828Z,10.60
2023-01-09T15:33:55.132Z,10.60
2023-01-09T15:36:25.598Z,10.50
2023-01-09T15:38:54.482Z,10.50
2023-01-09T15:41:45.476Z,10.50
2023-01-09T15:44:20.404Z,10.50
2023-01-09T15:46:50.224Z,10.50
2023-01-09T15:49:20.553Z,10.50
2023-01-09T15:51:48.952Z,10.50
2023-01-09T15:54:20.928Z,10.50
2023-01-09T15:56:48.088Z,10.50
2023-01-09T15:59:29.819Z,10.50
2023-01-09T16:02:24.632Z,10.40
2023-01-09T16:04:55.649Z,10.40
2023-01-09T16:07:22.834Z,10.50
2023-01-09T16:09:52.875Z,10.50
2023-01-09T16:12:27.059Z,10.40
2023-01-09T16:15:00.163Z,10.40
2023-01-09T16:17:31.871Z,10.40
2023-01-09T16:20:23.987Z,10.40
2023-01-09T16:22:56.066Z,10.40
2023-01-09T16:25:34.498Z,10.40
2023-01-09T16:28:23.252Z,10.30
2023-01-09T16:31:09.242Z,10.30
2023-01-09T16:33:46.357Z,10.30
2023-01-09T16:36:16.990Z,10.30
2023-01-09T16:38:47.310Z,10.30
2023-01-09T16:41:40.022Z,10.30
2023-01-09T16:44:11.986Z,10.20
2023-01-09T16:46:43.616Z,10.20
2023-01-09T16:49:22.711Z,10.20
2023-01-09T16:51:51.329Z,10.20
2023-01-09T16:54:18.818Z,10.20
2023-01-09T16:56:49.234Z,10.20
2023-01-09T16:59:26.072Z,10.20
2023-01-09T17:01:54.292Z,10.20
2023-01-09T17:04:23.702Z,10.20
2023-01-09T17:06:53.888Z,10.20
2023-01-09T17:09:23.656Z,10.20
2023-01-09T17:11:52.678Z,10.10
2023-01-09T17:14:19.926Z,10.10
2023-01-09T17:16:49.184Z,10.10
2023-01-09T17:19:19.045Z,10.20
2023-01-09T17:21:46.731Z,10.20
2023-01-09T17:24:33.243Z,10.20
2023-01-09T17:27:21.643Z,10.20
2023-01-09T17:29:51.250Z,10.20
2023-01-09T17:32:18.704Z,10.20
2023-01-09T17:34:45.856Z,10.10
2023-01-09T17:37:18.117Z,10.10
2023-01-09T17:39:47.523Z,10.10
2023-01-09T17:42:14.757Z,10.10
2023-01-09T17:44:44.043Z,10.10
2023-01-09T17:47:17.294Z,10.10
2023-01-09T17:49:49.361Z,10.10
2023-01-09T17:52:19.021Z,10.00
2023-01-09T17:54:50.705Z,9.90
2023-01-09T17:57:23.074Z,9.90
2023-01-09T17:59:52.667Z,9.80
2023-01-09T18:02:25.019Z,9.70
2023-01-09T18:04:52.307Z,9.60
2023-01-09T18:07:20.688Z,9.50
2023-01-09T18:09:47.999Z,9.40
2023-01-09T18:12:15.249Z,9.30
2023-01-09T18:14:42.888Z,9.30
2023-01-09T18:17:13.083Z,9.30
2023-01-09T18:19:40.445Z,9.30
2023-01-09T18:22:07.620Z,9.20
2023-01-09T18:24:35.105Z,9.20
2023-01-09T18:27:02.327Z,9.20
2023-01-09T18:29:31.534Z,9.30
2023-01-09T18:32:00.962Z,9.20
2023-01-09T18:34:30.527Z,9.30
2023-01-09T18:36:59.887Z,9.40
2023-01-09T18:39:32.616Z,9.40
2023-01-09T18:41:59.777Z,9.40
2023-01-09T18:44:29.205Z,9.40
2023-01-09T18:46:56.443Z,9.30
2023-01-09T18:49:25.758Z,9.30
2023-01-09T18:51:52.933Z,9.30
2023-01-09T18:54:25.497Z,9.30
2023-01-09T18:56:57.444Z,9.30
2023-01-09T18:59:27.038Z,9.30
2023-01-09T19:01:54.293Z,9.40
2023-01-09T19:04:23.726Z,9.40
2023-01-09T19:06:56.155Z,9.40
2023-01-09T19:09:23.359Z,9.40
2023-01-09T19:11:50.578Z,9.40
2023-01-09T19:14:20.106Z,9.40
2023-01-09T19:16:47.364Z,9.40
2023-01-09T19:19:16.663Z,9.40
2023-01-09T19:21:45.525Z,9.40
2023-01-09T19:24:14.986Z,9.40
2023-01-09T19:26:44.466Z,9.40
2023-01-09T19:29:15.334Z,9.30
2023-01-09T19:31:42.618Z,9.30
2023-01-09T19:34:12.404Z,9.30
2023-01-09T19:36:43.822Z,9.30
2023-01-09T19:39:11.429Z,9.20
2023-01-09T19:41:42.024Z,9.20
2023-01-09T19:44:09.527Z,9.10
2023-01-09T19:46:36.917Z,9.10
2023-01-09T19:49:07.426Z,9.00
2023-01-09T19:51:34.694Z,9.00
2023-01-09T19:56:35.548Z,9.00
2023-01-09T19:59:05.981Z,8.90
2023-01-09T20:01:36.107Z,8.90
2023-01-09T20:04:13.308Z,8.90
2023-01-09T20:06:43.802Z,9.00
2023-01-09T20:09:18.040Z,9.00
2023-01-09T20:11:45.478Z,9.00
2023-01-09T20:14:17.133Z,9.00
2023-01-09T20:16:44.779Z,8.90
2023-01-09T20:19:15.600Z,8.90
2023-01-09T20:21:49.253Z,8.90
2023-01-09T20:24:16.923Z,8.80
2023-01-09T20:26:48.577Z,8.90
2023-01-09T20:29:16.848Z,8.80
2023-01-09T20:31:46.908Z,8.80
2023-01-09T20:34:15.417Z,8.80
2023-01-09T20:36:44.848Z,8.70
2023-01-09T20:39:14.815Z,8.80
2023-01-09T20:41:44.286Z,8.80
2023-01-09T20:44:13.609Z,8.80
2023-01-09T20:46:44.748Z,8.80
2023-01-09T20:49:13.636Z,8.70
2023-01-09T20:51:43.666Z,8.80
2023-01-09T20:54:13.517Z,8.70
2023-01-09T20:56:40.972Z,8.70
2023-01-09T20:59:16.963Z,8.70
2023-01-09T21:01:46.868Z,8.70
2023-01-09T21:04:14.306Z,8.60
2023-01-09T21:06:42.558Z,8.60
2023-01-09T21:09:12.270Z,8.60
2023-01-09T21:11:39.387Z,8.50
2023-01-09T21:14:06.787Z,8.50
2023-01-09T21:16:38.649Z,8.40
2023-01-09T21:19:05.871Z,8.40
2023-01-09T21:21:35.566Z,8.40
2023-01-09T21:24:08.206Z,8.30
2023-01-09T21:26:40.061Z,8.30
2023-01-09T21:29:13.077Z,8.30
2023-01-09T21:31:44.129Z,8.30
2023-01-09T21:34:14.723Z,8.20
2023-01-09T21:36:43.306Z,8.20
2023-01-09T21:39:10.510Z,8.20
2023-01-09T21:41:58.345Z,8.20
2023-01-09T21:44:46.413Z,8.10
2023-01-09T21:47:16.052Z,8.10
2023-01-09T21:49:44.440Z,8.10
2023-01-09T21:52:14.635Z,8.00
2023-01-09T21:54:44.456Z,8.00
2023-01-09T21:57:14.104Z,8.00
2023-01-09T21:59:41.671Z,8.00
2023-01-09T22:02:17.054Z,8.00
2023-01-09T22:04:49.205Z,8.00
2023-01-09T22:07:16.612Z,8.00
2023-01-09T22:09:44.675Z,8.00
2023-01-09T22:12:13.101Z,8.00
2023-01-09T22:14:40.349Z,8.00
2023-01-09T22:17:09.807Z,7.90
2023-01-09T22:19:37.040Z,7.90
2023-01-09T22:22:08.429Z,7.90
2023-01-09T22:24:35.706Z,7.90
2023-01-09T22:27:03.090Z,7.80
2023-01-09T22:29:30.342Z,7.80
2023-01-09T22:31:59.733Z,7.80
2023-01-09T22:34:29.801Z,7.80
2023-01-09T22:36:59.589Z,7.80
2023-01-09T22:39:31.412Z,7.80
2023-01-09T22:42:01.180Z,7.80
2023-01-09T22:44:28.390Z,7.80
2023-01-09T22:46:58.494Z,7.80
2023-01-09T22:49:28.228Z,7.80
2023-01-09T22:51:59.597Z,7.80
2023-01-09T22:54:26.759Z,7.80
2023-01-09T22:56:53.932Z,7.80
2023-01-09T22:59:21.060Z,7.80
2023-01-09T23:01:48.217Z,7.80
2023-01-09T23:04:17.824Z,7.80
2023-01-09T23:06:51.093Z,7.80
2023-01-09T23:09:20.642Z,7.80
2023-01-09T23:12:05.534Z,7.80
2023-01-09T23:14:38.382Z,7.80
2023-01-09T23:17:09.693Z,7.80
2023-01-09T23:19:37.649Z,7.70
2023-01-09T23:22:05.582Z,7.70
2023-01-09T23:24:37.598Z,7.70
2023-01-09T23:27:07.745Z,7.70
2023-01-09T23:29:38.498Z,7.70
2023-01-09T23:32:07.354Z,7.70
2023-01-09T23:34:34.591Z,7.70
2023-01-09T23:37:08.883Z,7.70
2023-01-09T23:39:38.415Z,7.70
2023-01-09T23:42:24.267Z,7.80
2023-01-09T23:44:51.445Z,7.80
2023-01-09T23:47:18.692Z,7.80
2023-01-09T23:49:45.902Z,7.80
2023-01-09T23:52:13.059Z,7.80
2023-01-09T23:54:40.218Z,7.80
2023-01-09T23:57:07.557Z,7.80
2023-01-09T23:59:35.452Z,7.80
